Portada
METAR-TAF:

METAR-TAF

Aeropuertos :

Aeropuerto Internacional de Lamezia Terme

Lamezia Terme, Italia

latitud: 38-54N, longitud: 016-15E, altitud: 15 m

Observación

El informe se hizo hace 1 hora y 8 minutos, a las 12:50 UTC
Viento 17 kt del oeste
Temperatura 14°C
Humedad 58%
Presión 1013 hPa
Visibilidad 10 km o más
Escasas nubes a una altura de 3000 ft

METAR: LICA 011250Z 27017KT 9999 FEW030 14/06 Q1013

Hora: 15:58 (13:58 UTC)

Pronóstico

El informe se hizo hace 1 hora y 54 minutos, a las 12:04 UTC
Pronóstico válido del 01 a las 12 UTC al 02 a las 12 UTC
Viento 13 kt del oeste
Visibilidad 10 km o más
Nubes dispersas a una altura de 2000 ft
Evolucionando progresivamente
del 01 a las 20 UTC al 01 a las 22 UTC
Viento 8 kt del este-noreste

TAF: LICA 011204Z 0112/0212 27013KT 9999 SCT020 BECMG 0120/0122 07008KT

Observaciones y pronósticos meteorológicos de más de 4000 aeropuertos (mensajes METAR y TAF).

Los puntos amarillos y rojos representan las estaciones disponibles.

Ponga el ratón en el punto deseado para ver el nombre de la estación.

Haga clic para ver las observaciones y los pronósticos meteorológicos.

Para cambiar el mapa : haga clic en los botones verdes con una cruz de color negro para hacer un zoom, en el botón verde con un guión para alejar o en las flechas verdes para mapas adyacentes.


METAR-TAF: